עמוד ראשי
METAR-TAF:

METAR-TAF

שדות תעופה :

גלאזגו-Prestwick, סקוטלנד

קו רוחב: 55-30N, קו אורך: 004-35W, גובה: 20מטר

תצפית מזג אוויר נוכחית

הדו"ח נערך לפני 44דקות, בשעה 08:50 UTC
רוח 8קשר מכיוון מערב, משתנה בין מערב/דרום-מערב ו מערב/צפון-מערב
טמפרטורת 13 צלסיוס
לחות 82%
לחץ 1022 hPa
ראות 10 קילומטר או יותר
מעט עננים בגובה 1200רגל
עננים פזורים בגובה 2600רגל

METAR: EGPK 190850Z 27008KT 240V300 9999 FEW012 SCT026 13/10 Q1022

זמן: 10:34 (09:34 UTC)

תחזית

הדו"ח נערך לפני 4 שעות ו 39דקות, בשעה 04:55 UTC
תחזית בתוקף מ 19 ב 06 UTC עד 20 ב 06 UTC
רוח 4קשר עם כיוונים משתנים
ראות 10 קילומטר או יותר
עננים פזורים בגובה 2000רגל
יעשה מ
19 ב 06 UTC עד 19 ב 09 UTC
רוח 10קשר מכיוון מערב/דרום-מערב
הסתברות 30% :
זמנית מ -
19 ב 06 UTC עד 19 ב 09 UTC
עננים בינוניים בגובה 1400רגל
יעשה מ
20 ב 00 UTC עד 20 ב 03 UTC
עננים בינוניים בגובה 1200רגל
זמנית מ -
20 ב 03 UTC עד 20 ב 06 UTC
ראות: 7000מטר
עננים בינוניים בגובה 700רגל
גשם קל,

TAF: EGPK 190455Z 1906/2006 VRB04KT 9999 SCT020 BECMG 1906/1909 24010KT PROB30 TEMPO 1906/1909 BKN014 BECMG 2000/2003 BKN012 TEMPO 2003/2006 7000 -RA BKN007

תצפיות ותחזיות מזג אוויר לגבי יותר מ- 4,000 שדות תעופה ברחבי העולם. דוחות METAR ו- TAF.

התחנות הזמינות מסומנות בנקודות צהובות ואדומות על גבי המפה.

העבר את העכבר לנקודה הצבעונית על מנת לראות את שם התחנה.

לאחר מכן, לחץ כדי לראות את תוכן ואת תחזיות מזג האוויר.

כדי לשנות את המפה: לחץ על הכפתורים הירוקים עם הפלוס השחור כדי להתקרב; על הכפתור הירוק עם המקף כדי להתרחק; או בחיצים הירוקים למפות סמוכות.


METAR-TAF: